createdAt,value
2019-05-11T00:01:13.764Z,75.60
2019-05-11T00:03:45.423Z,75.80
2019-05-11T00:06:14.860Z,75.90
2019-05-11T00:08:46.563Z,76.00
2019-05-11T00:11:16.768Z,76.10
2019-05-11T00:13:50.076Z,76.70
2019-05-11T00:16:24.882Z,77.30
2019-05-11T00:18:56.566Z,77.20
2019-05-11T00:21:28.218Z,77.20
2019-05-11T00:23:56.706Z,76.90
2019-05-11T00:26:28.958Z,76.90
2019-05-11T00:28:59.063Z,76.90
2019-05-11T00:31:27.970Z,77.20
2019-05-11T00:34:00.656Z,77.30
2019-05-11T00:36:29.440Z,77.30
2019-05-11T00:38:57.908Z,76.90
2019-05-11T00:41:26.386Z,76.60
2019-05-11T00:43:54.870Z,76.60
2019-05-11T00:46:23.356Z,77.80
2019-05-11T00:48:51.900Z,77.30
2019-05-11T00:51:20.436Z,77.30
2019-05-11T00:53:48.936Z,77.40
2019-05-11T00:56:17.700Z,77.50
2019-05-11T00:58:46.182Z,77.60
2019-05-11T01:01:14.725Z,77.50
2019-05-11T01:03:43.204Z,77.20
2019-05-11T01:06:11.768Z,77.20
2019-05-11T01:08:40.314Z,77.40
2019-05-11T01:11:08.850Z,77.40
2019-05-11T01:13:37.487Z,77.30
2019-05-11T01:16:06.442Z,77.40
2019-05-11T01:18:34.906Z,77.60
2019-05-11T01:21:03.406Z,77.70
2019-05-11T01:23:31.983Z,77.80
2019-05-11T01:26:00.894Z,77.70
2019-05-11T01:28:29.411Z,77.80
2019-05-11T01:30:57.887Z,78.00
2019-05-11T01:33:26.357Z,78.00
2019-05-11T01:35:54.890Z,78.00
2019-05-11T01:38:23.385Z,78.10
2019-05-11T01:40:58.551Z,78.00
2019-05-11T01:43:22.099Z,77.90
2019-05-11T01:45:50.573Z,77.90
2019-05-11T01:48:19.058Z,77.90
2019-05-11T01:50:47.779Z,77.80
2019-05-11T01:53:16.251Z,77.70
2019-05-11T01:55:44.766Z,77.60
2019-05-11T01:58:13.269Z,77.60
2019-05-11T02:00:41.747Z,77.70
2019-05-11T02:03:10.234Z,77.90
2019-05-11T02:05:38.721Z,78.90
2019-05-11T02:08:07.197Z,78.20
2019-05-11T02:10:35.758Z,78.20
2019-05-11T02:13:04.619Z,78.20
2019-05-11T02:15:33.168Z,78.30
2019-05-11T02:18:01.669Z,78.40
2019-05-11T02:20:30.141Z,78.60
2019-05-11T02:22:58.608Z,78.70
2019-05-11T02:25:27.105Z,78.90
2019-05-11T02:27:55.924Z,78.90
2019-05-11T02:30:26.066Z,79.00
2019-05-11T02:32:56.929Z,79.20
2019-05-11T02:35:28.300Z,79.20
2019-05-11T02:38:14.733Z,79.20
2019-05-11T02:40:46.186Z,79.40
2019-05-11T02:43:14.861Z,79.70
2019-05-11T02:45:50.487Z,79.60
2019-05-11T02:48:19.236Z,79.30
2019-05-11T02:50:48.807Z,79.00
2019-05-11T02:53:18.454Z,78.90
2019-05-11T02:55:49.207Z,79.20
2019-05-11T02:58:17.746Z,79.10
2019-05-11T03:00:46.990Z,79.30
2019-05-11T03:03:15.568Z,79.50
2019-05-11T03:05:44.280Z,80.00
2019-05-11T03:08:13.080Z,80.00
2019-05-11T03:10:41.641Z,79.60
2019-05-11T03:13:10.195Z,79.30
2019-05-11T03:15:38.815Z,79.00
2019-05-11T03:18:07.393Z,79.00
2019-05-11T03:20:35.904Z,78.90
2019-05-11T03:23:04.562Z,78.90
2019-05-11T03:25:33.064Z,79.00
2019-05-11T03:28:01.522Z,79.20
2019-05-11T03:30:30.007Z,79.20
2019-05-11T03:32:58.589Z,79.10
2019-05-11T03:35:27.119Z,79.10
2019-05-11T03:37:55.584Z,79.10
2019-05-11T03:40:35.245Z,79.30
2019-05-11T03:43:05.556Z,79.30
2019-05-11T03:45:34.448Z,79.50
2019-05-11T03:48:04.557Z,79.60
2019-05-11T03:50:34.788Z,79.40
2019-05-11T03:53:07.103Z,79.60
2019-05-11T03:55:38.797Z,79.60
2019-05-11T03:58:08.918Z,79.50
2019-05-11T04:00:39.190Z,79.40
2019-05-11T04:03:13.643Z,79.60
2019-05-11T04:05:47.319Z,79.70
2019-05-11T04:08:15.604Z,79.60
2019-05-11T04:10:46.725Z,79.70
2019-05-11T04:13:22.489Z,79.80
2019-05-11T04:15:52.567Z,79.80
2019-05-11T04:18:21.390Z,80.00
2019-05-11T04:20:49.853Z,79.80
2019-05-11T04:23:18.409Z,79.80
2019-05-11T04:25:47.135Z,79.80
2019-05-11T04:28:15.679Z,79.80
2019-05-11T04:30:44.483Z,79.90
2019-05-11T04:33:12.958Z,79.90
2019-05-11T04:35:41.442Z,80.10
2019-05-11T04:38:09.944Z,80.10
2019-05-11T04:40:38.927Z,80.10
2019-05-11T04:43:07.416Z,79.90
2019-05-11T04:45:35.903Z,80.00
2019-05-11T04:48:04.912Z,79.90
2019-05-11T04:50:33.373Z,79.80
2019-05-11T04:53:02.001Z,79.70
2019-05-11T04:55:31.132Z,79.30
2019-05-11T04:57:59.626Z,78.80
2019-05-11T05:00:28.280Z,77.60
2019-05-11T05:02:56.822Z,76.70
2019-05-11T05:05:25.338Z,75.60
2019-05-11T05:08:07.429Z,74.70
2019-05-11T05:10:24.012Z,73.10
2019-05-11T05:12:53.423Z,71.90
2019-05-11T05:15:22.776Z,71.10
2019-05-11T05:17:51.775Z,70.00
2019-05-11T05:20:20.483Z,69.20
2019-05-11T05:22:49.353Z,67.90
2019-05-11T05:25:17.869Z,66.50
2019-05-11T05:27:46.427Z,65.50
2019-05-11T05:30:15.427Z,64.80
2019-05-11T05:32:43.926Z,64.10
2019-05-11T05:35:12.828Z,65.00
2019-05-11T05:37:41.345Z,65.80
2019-05-11T05:40:10.221Z,66.30
2019-05-11T05:42:38.758Z,67.10
2019-05-11T05:45:07.315Z,67.40
2019-05-11T05:47:35.806Z,66.40
2019-05-11T05:50:06.250Z,66.10
2019-05-11T05:52:35.035Z,65.90
2019-05-11T05:55:05.027Z,66.50
2019-05-11T05:57:33.495Z,67.20
2019-05-11T06:00:02.008Z,67.90
2019-05-11T06:02:30.500Z,68.70
2019-05-11T06:04:59.033Z,69.00
2019-05-11T06:07:27.513Z,69.00
2019-05-11T06:09:56.052Z,68.90
2019-05-11T06:12:24.512Z,68.40
2019-05-11T06:14:53.006Z,68.10
2019-05-11T06:17:21.602Z,68.00
2019-05-11T06:19:50.143Z,67.50
2019-05-11T06:22:18.702Z,67.50
2019-05-11T06:24:47.211Z,67.40
2019-05-11T06:27:15.695Z,67.00
2019-05-11T06:29:44.158Z,66.80
2019-05-11T06:32:12.906Z,66.30
2019-05-11T06:35:01.193Z,66.10
2019-05-11T06:37:29.695Z,66.90
2019-05-11T06:39:58.183Z,67.00
2019-05-11T06:42:27.021Z,67.50
2019-05-11T06:44:55.532Z,67.10
2019-05-11T06:47:24.005Z,66.40
2019-05-11T06:49:52.464Z,65.70
2019-05-11T06:52:20.959Z,64.80
2019-05-11T06:54:49.495Z,64.10
2019-05-11T06:57:18.558Z,62.60
2019-05-11T06:59:47.092Z,61.60
2019-05-11T07:02:15.728Z,60.30
2019-05-11T07:04:44.294Z,59.50
2019-05-11T07:07:12.913Z,59.70
2019-05-11T07:09:41.378Z,59.60
2019-05-11T07:12:10.115Z,58.40
2019-05-11T07:14:38.676Z,58.50
2019-05-11T07:17:07.150Z,58.40
2019-05-11T07:19:36.074Z,59.10
2019-05-11T07:22:04.605Z,58.00
2019-05-11T07:24:33.128Z,57.20
2019-05-11T07:27:02.006Z,57.20
2019-05-11T07:29:30.540Z,56.70
2019-05-11T07:32:05.545Z,56.90
2019-05-11T07:34:29.324Z,55.50
2019-05-11T07:36:57.875Z,55.70
2019-05-11T07:39:27.897Z,55.70
2019-05-11T07:41:58.586Z,55.70
2019-05-11T07:44:38.536Z,55.40
2019-05-11T07:47:04.899Z,55.10
2019-05-11T07:49:33.367Z,54.00
2019-05-11T07:52:01.834Z,53.80
2019-05-11T07:54:30.334Z,53.90
2019-05-11T07:56:58.891Z,53.90
2019-05-11T07:59:28.957Z,53.20
2019-05-11T08:01:58.308Z,53.10
2019-05-11T08:04:28.738Z,54.10
2019-05-11T08:06:58.405Z,54.10
2019-05-11T08:09:27.942Z,53.90
2019-05-11T08:11:58.437Z,54.00
2019-05-11T08:14:28.807Z,54.00
2019-05-11T08:16:59.401Z,55.00
2019-05-11T08:19:28.294Z,54.80
2019-05-11T08:21:58.214Z,54.60
2019-05-11T08:24:28.444Z,55.10
2019-05-11T08:26:58.209Z,54.60
2019-05-11T08:29:27.822Z,55.80
2019-05-11T08:31:57.939Z,55.00
2019-05-11T08:34:28.550Z,54.70
2019-05-11T08:36:58.374Z,54.80
2019-05-11T08:39:28.846Z,54.50
2019-05-11T08:41:59.019Z,55.00
2019-05-11T08:44:28.764Z,54.70
2019-05-11T08:47:01.385Z,55.60
2019-05-11T08:49:34.411Z,55.40
2019-05-11T08:52:00.364Z,55.70
2019-05-11T08:54:29.051Z,55.70
2019-05-11T08:56:58.710Z,55.40
2019-05-11T08:59:28.169Z,55.30
2019-05-11T09:02:03.251Z,54.80
2019-05-11T09:04:33.752Z,55.30
2019-05-11T09:07:09.143Z,56.30
2019-05-11T09:09:38.127Z,56.20
2019-05-11T09:12:07.800Z,56.10
2019-05-11T09:14:38.732Z,56.00
2019-05-11T09:17:07.835Z,56.40
2019-05-11T09:19:38.720Z,56.60
2019-05-11T09:22:08.249Z,56.80
2019-05-11T09:24:38.605Z,57.30
2019-05-11T09:27:07.845Z,57.20
2019-05-11T09:29:38.536Z,57.00
2019-05-11T09:32:08.839Z,56.60
2019-05-11T09:34:37.761Z,56.90
2019-05-11T09:37:07.939Z,57.50
2019-05-11T09:39:38.355Z,56.40
2019-05-11T09:42:07.724Z,56.80
2019-05-11T09:44:42.422Z,56.70
2019-05-11T09:47:10.980Z,57.20
2019-05-11T09:49:47.556Z,57.10
2019-05-11T09:52:09.834Z,56.60
2019-05-11T09:54:38.779Z,56.00
2019-05-11T09:57:08.351Z,55.80
2019-05-11T09:59:38.493Z,55.90
2019-05-11T10:02:08.114Z,56.60
2019-05-11T10:04:37.999Z,56.30
2019-05-11T10:07:08.811Z,56.20
2019-05-11T10:09:38.332Z,56.00
2019-05-11T10:12:08.187Z,56.00
2019-05-11T10:14:38.004Z,56.90
2019-05-11T10:17:07.756Z,55.70
2019-05-11T10:19:39.579Z,55.00
2019-05-11T10:22:13.727Z,55.60
2019-05-11T10:24:43.077Z,55.90
2019-05-11T10:27:15.322Z,56.30
2019-05-11T10:29:48.359Z,56.10
2019-05-11T10:32:18.483Z,55.50
2019-05-11T10:34:47.814Z,55.90
2019-05-11T10:37:17.655Z,55.70
2019-05-11T10:39:48.663Z,55.70
2019-05-11T10:42:17.975Z,55.50
2019-05-11T10:44:47.823Z,56.00
2019-05-11T10:47:18.424Z,56.50
2019-05-11T10:49:48.510Z,55.40
2019-05-11T10:52:18.066Z,55.80
2019-05-11T10:54:47.765Z,55.60
2019-05-11T10:57:18.827Z,55.20
2019-05-11T10:59:48.894Z,55.30
2019-05-11T11:02:18.508Z,55.10
2019-05-11T11:04:48.555Z,55.20
2019-05-11T11:07:19.482Z,55.00
2019-05-11T11:09:49.107Z,55.10
2019-05-11T11:12:18.742Z,54.10
2019-05-11T11:14:48.214Z,54.20
2019-05-11T11:17:19.093Z,54.00
2019-05-11T11:19:48.620Z,53.60
2019-05-11T11:22:35.991Z,53.40
2019-05-11T11:24:48.138Z,53.80
2019-05-11T11:27:18.492Z,53.50
2019-05-11T11:29:47.589Z,53.60
2019-05-11T11:32:18.403Z,53.30
2019-05-11T11:34:48.452Z,53.60
2019-05-11T11:37:17.534Z,52.90
2019-05-11T11:39:47.642Z,53.10
2019-05-11T11:42:17.854Z,53.10
2019-05-11T11:44:48.398Z,53.60
2019-05-11T11:47:21.323Z,53.30
2019-05-11T11:49:47.572Z,53.00
2019-05-11T11:52:18.653Z,53.40
2019-05-11T11:54:47.893Z,52.90
2019-05-11T11:57:18.206Z,52.20
2019-05-11T11:59:48.141Z,52.30
2019-05-11T12:02:19.167Z,52.00
2019-05-11T12:04:48.577Z,52.00
2019-05-11T12:07:17.925Z,51.50
2019-05-11T12:09:48.367Z,51.50
2019-05-11T12:12:18.621Z,51.60
2019-05-11T12:14:48.233Z,51.70
2019-05-11T12:17:18.169Z,51.60
2019-05-11T12:19:47.878Z,51.90
2019-05-11T12:22:21.076Z,51.30
2019-05-11T12:24:51.197Z,51.00
2019-05-11T12:27:21.001Z,51.10
2019-05-11T12:29:49.550Z,50.80
2019-05-11T12:32:19.692Z,50.80
2019-05-11T12:34:48.530Z,50.80
2019-05-11T12:37:17.903Z,50.90
2019-05-11T12:40:04.412Z,50.90
2019-05-11T12:42:33.059Z,50.80
2019-05-11T12:45:13.279Z,50.50
2019-05-11T12:47:48.027Z,50.10
2019-05-11T12:50:18.958Z,49.90
2019-05-11T12:52:47.757Z,49.80
2019-05-11T12:55:17.984Z,50.00
2019-05-11T12:57:47.817Z,50.10
2019-05-11T13:00:17.990Z,50.00
2019-05-11T13:02:48.476Z,50.00
2019-05-11T13:05:18.027Z,50.10
2019-05-11T13:07:48.141Z,49.90
2019-05-11T13:10:18.334Z,49.60
2019-05-11T13:12:49.022Z,49.40
2019-05-11T13:15:17.640Z,49.70
2019-05-11T13:17:49.153Z,50.30
2019-05-11T13:20:19.897Z,50.20
2019-05-11T13:22:48.975Z,49.90
2019-05-11T13:25:18.038Z,50.30
2019-05-11T13:27:48.921Z,50.00
2019-05-11T13:30:18.393Z,50.20
2019-05-11T13:32:49.025Z,50.40
2019-05-11T13:35:17.946Z,50.30
2019-05-11T13:37:47.977Z,50.20
2019-05-11T13:40:18.393Z,50.10
2019-05-11T13:42:48.949Z,50.00
2019-05-11T13:45:18.385Z,50.00
2019-05-11T13:47:54.394Z,50.10
2019-05-11T13:50:17.764Z,49.90
2019-05-11T13:52:47.877Z,50.00
2019-05-11T13:55:18.156Z,50.00
2019-05-11T13:57:48.612Z,49.90
2019-05-11T14:00:17.617Z,49.40
2019-05-11T14:02:48.331Z,49.70
2019-05-11T14:05:20.782Z,50.00
2019-05-11T14:07:52.723Z,49.90
2019-05-11T14:10:28.093Z,49.90
2019-05-11T14:13:18.326Z,50.00
2019-05-11T14:15:54.376Z,49.50
2019-05-11T14:18:28.140Z,49.00
2019-05-11T14:20:53.036Z,49.30
2019-05-11T14:23:21.745Z,49.10
2019-05-11T14:25:57.550Z,48.30
2019-05-11T14:28:24.167Z,48.20
2019-05-11T14:30:52.724Z,48.20
2019-05-11T14:33:21.342Z,48.40
2019-05-11T14:35:49.850Z,48.50
2019-05-11T14:38:18.906Z,48.40
2019-05-11T14:40:48.201Z,48.60
2019-05-11T14:43:18.783Z,48.20
2019-05-11T14:45:48.637Z,47.70
2019-05-11T14:48:24.022Z,47.70
2019-05-11T14:50:48.892Z,48.30
2019-05-11T14:53:18.054Z,48.50
2019-05-11T14:55:48.719Z,47.70
2019-05-11T14:58:19.738Z,47.80
2019-05-11T15:00:48.688Z,47.30
2019-05-11T15:03:18.262Z,47.70
2019-05-11T15:05:47.863Z,47.80
2019-05-11T15:08:18.047Z,47.20
2019-05-11T15:10:48.662Z,46.90
2019-05-11T15:13:18.636Z,46.90
2019-05-11T15:15:48.779Z,46.80
2019-05-11T15:18:17.822Z,47.00
2019-05-11T15:20:47.943Z,46.70
2019-05-11T15:23:18.078Z,46.80
2019-05-11T15:25:50.030Z,46.80
2019-05-11T15:28:18.520Z,46.50
2019-05-11T15:30:48.303Z,46.50
2019-05-11T15:33:18.360Z,46.60
2019-05-11T15:35:47.909Z,46.70
2019-05-11T15:38:17.879Z,47.00
2019-05-11T15:40:48.617Z,47.10
2019-05-11T15:43:17.947Z,47.10
2019-05-11T15:45:48.716Z,47.20
2019-05-11T15:48:18.657Z,46.90
2019-05-11T15:50:48.610Z,46.60
2019-05-11T15:53:17.834Z,47.30
2019-05-11T15:55:46.495Z,47.30
2019-05-11T15:58:15.046Z,47.70
2019-05-11T16:00:43.626Z,47.60
2019-05-11T16:03:12.104Z,47.40
2019-05-11T16:05:40.570Z,47.00
2019-05-11T16:08:09.056Z,47.20
2019-05-11T16:10:38.454Z,46.20
2019-05-11T16:13:09.242Z,46.60
2019-05-11T16:15:38.396Z,46.70
2019-05-11T16:18:08.388Z,46.80
2019-05-11T16:20:37.342Z,46.70
2019-05-11T16:23:05.841Z,46.50
2019-05-11T16:25:34.383Z,46.20
2019-05-11T16:28:03.427Z,46.30
2019-05-11T16:30:32.195Z,46.30
2019-05-11T16:33:00.680Z,46.40
2019-05-11T16:35:29.209Z,45.50
2019-05-11T16:37:59.266Z,45.50
2019-05-11T16:40:29.574Z,45.70
2019-05-11T16:42:58.784Z,45.70
2019-05-11T16:45:28.177Z,45.90
2019-05-11T16:47:58.679Z,46.00
2019-05-11T16:50:28.228Z,46.40
2019-05-11T16:52:58.540Z,46.30
2019-05-11T16:55:27.261Z,46.20
2019-05-11T16:57:58.639Z,46.10
2019-05-11T17:00:26.114Z,46.40
2019-05-11T17:02:54.577Z,46.50
2019-05-11T17:05:29.785Z,46.70
2019-05-11T17:07:53.443Z,46.90
2019-05-11T17:10:22.210Z,46.90
2019-05-11T17:12:54.888Z,47.10
2019-05-11T17:15:24.806Z,47.20
2019-05-11T17:17:58.753Z,47.50
2019-05-11T17:20:33.522Z,47.80
2019-05-11T17:23:03.591Z,48.20
2019-05-11T17:25:37.803Z,48.40
2019-05-11T17:28:09.258Z,48.60
2019-05-11T17:30:38.563Z,48.80
2019-05-11T17:33:08.699Z,49.10
2019-05-11T17:35:36.922Z,49.20
2019-05-11T17:38:07.805Z,49.50
2019-05-11T17:40:37.685Z,49.80
2019-05-11T17:43:05.843Z,49.80
2019-05-11T17:45:34.390Z,50.00
2019-05-11T17:48:02.891Z,50.00
2019-05-11T17:50:31.427Z,50.10
2019-05-11T17:52:59.969Z,50.30
2019-05-11T17:55:28.839Z,50.60
2019-05-11T17:57:58.191Z,50.80
2019-05-11T18:00:28.382Z,50.70
2019-05-11T18:02:58.750Z,50.60
2019-05-11T18:05:27.625Z,50.90
2019-05-11T18:07:59.406Z,51.00
2019-05-11T18:10:30.883Z,51.30
2019-05-11T18:13:04.299Z,51.50
2019-05-11T18:15:39.270Z,51.80
2019-05-11T18:18:12.644Z,52.10
2019-05-11T18:20:42.864Z,52.20
2019-05-11T18:23:17.514Z,52.40
2019-05-11T18:25:47.868Z,52.50
2019-05-11T18:28:19.626Z,52.50
2019-05-11T18:30:48.094Z,52.20
2019-05-11T18:33:20.013Z,52.70
2019-05-11T18:35:52.053Z,52.90
2019-05-11T18:38:24.176Z,53.00
2019-05-11T18:40:52.642Z,53.20
2019-05-11T18:43:21.139Z,53.60
2019-05-11T18:45:49.640Z,53.70
2019-05-11T18:48:18.562Z,53.80
2019-05-11T18:50:56.826Z,54.00
2019-05-11T18:53:28.783Z,54.00
2019-05-11T18:55:59.601Z,54.20
2019-05-11T18:58:28.035Z,54.10
2019-05-11T19:00:56.746Z,54.00
2019-05-11T19:03:25.250Z,54.20
2019-05-11T19:05:53.730Z,54.30
2019-05-11T19:08:22.281Z,54.40
2019-05-11T19:10:50.746Z,54.40
2019-05-11T19:13:19.611Z,54.60
2019-05-11T19:15:48.745Z,54.70
2019-05-11T19:18:18.029Z,54.70
2019-05-11T19:20:49.306Z,54.70
2019-05-11T19:23:19.024Z,55.00
2019-05-11T19:25:47.990Z,55.20
2019-05-11T19:28:18.680Z,55.30
2019-05-11T19:30:48.821Z,55.30
2019-05-11T19:33:23.323Z,55.30
2019-05-11T19:35:55.012Z,55.30
2019-05-11T19:38:27.845Z,55.60
2019-05-11T19:40:55.321Z,55.70
2019-05-11T19:43:23.827Z,55.90
2019-05-11T19:45:52.287Z,56.00
2019-05-11T19:48:20.755Z,56.30
2019-05-11T19:51:03.779Z,56.10
2019-05-11T19:53:19.524Z,56.30
2019-05-11T19:55:48.155Z,56.40
2019-05-11T19:58:19.125Z,56.30
2019-05-11T20:00:48.788Z,56.40
2019-05-11T20:03:18.187Z,56.70
2019-05-11T20:05:48.537Z,56.80
2019-05-11T20:08:18.486Z,57.10
2019-05-11T20:10:48.649Z,57.00
2019-05-11T20:13:18.085Z,57.10
2019-05-11T20:15:48.521Z,57.30
2019-05-11T20:18:18.415Z,57.50
2019-05-11T20:20:48.077Z,57.60
2019-05-11T20:23:16.945Z,57.60
2019-05-11T20:25:47.656Z,57.90
2019-05-11T20:28:18.015Z,58.20
2019-05-11T20:30:48.096Z,58.30
2019-05-11T20:33:16.047Z,58.30
2019-05-11T20:35:44.523Z,58.20
2019-05-11T20:38:13.020Z,58.20
2019-05-11T20:40:41.504Z,58.30
2019-05-11T20:43:10.119Z,58.50
2019-05-11T20:45:38.672Z,58.50
2019-05-11T20:48:07.895Z,58.40
2019-05-11T20:50:37.916Z,58.50
2019-05-11T20:53:08.542Z,59.00
2019-05-11T20:55:37.640Z,58.80
2019-05-11T20:58:08.470Z,58.90
2019-05-11T21:00:38.340Z,58.90
2019-05-11T21:03:08.009Z,59.00
2019-05-11T21:05:36.907Z,59.00
2019-05-11T21:08:05.451Z,59.20
2019-05-11T21:10:33.946Z,59.30
2019-05-11T21:13:02.952Z,59.30
2019-05-11T21:15:31.454Z,59.40
2019-05-11T21:17:59.917Z,59.60
2019-05-11T21:20:28.918Z,59.60
2019-05-11T21:22:58.153Z,59.60
2019-05-11T21:25:28.783Z,59.70
2019-05-11T21:27:57.922Z,59.90
2019-05-11T21:30:26.798Z,59.90
2019-05-11T21:32:55.299Z,60.80
2019-05-11T21:35:25.313Z,60.10
2019-05-11T21:37:53.813Z,60.30
2019-05-11T21:40:22.289Z,60.50
2019-05-11T21:42:50.751Z,60.50
2019-05-11T21:45:19.373Z,60.40
2019-05-11T21:47:48.983Z,60.60
2019-05-11T21:50:19.100Z,60.70
2019-05-11T21:52:48.517Z,60.80
2019-05-11T21:55:17.388Z,61.00
2019-05-11T21:57:49.449Z,61.20
2019-05-11T22:00:18.886Z,61.20
2019-05-11T22:02:48.656Z,61.30
2019-05-11T22:05:20.563Z,61.30
2019-05-11T22:07:48.968Z,61.50
2019-05-11T22:10:21.626Z,61.60
2019-05-11T22:12:54.291Z,61.80
2019-05-11T22:15:24.099Z,62.00
2019-05-11T22:17:54.423Z,62.00
2019-05-11T22:20:28.701Z,62.10
2019-05-11T22:23:00.087Z,62.10
2019-05-11T22:25:29.573Z,62.30
2019-05-11T22:28:08.168Z,62.50
2019-05-11T22:30:43.757Z,62.60
2019-05-11T22:33:11.970Z,62.70
2019-05-11T22:35:40.742Z,62.60
2019-05-11T22:38:09.205Z,62.80
2019-05-11T22:40:38.402Z,62.90
2019-05-11T22:43:09.408Z,63.00
2019-05-11T22:45:38.251Z,63.20
2019-05-11T22:48:07.883Z,63.40
2019-05-11T22:50:38.242Z,63.60
2019-05-11T22:53:08.706Z,63.80
2019-05-11T22:55:38.164Z,63.90
2019-05-11T22:58:08.438Z,64.10
2019-05-11T23:00:39.503Z,64.00
2019-05-11T23:03:10.953Z,64.00
2019-05-11T23:05:39.574Z,63.90
2019-05-11T23:08:08.630Z,64.10
2019-05-11T23:10:38.744Z,64.20
2019-05-11T23:13:10.712Z,64.50
2019-05-11T23:15:40.036Z,64.80
2019-05-11T23:18:08.590Z,65.00
2019-05-11T23:20:38.594Z,65.20
2019-05-11T23:23:08.717Z,65.20
2019-05-11T23:25:37.711Z,65.40
2019-05-11T23:28:06.198Z,65.40
2019-05-11T23:30:35.034Z,65.60
2019-05-11T23:33:03.595Z,65.80
2019-05-11T23:35:32.130Z,65.90
2019-05-11T23:38:00.642Z,65.90
2019-05-11T23:40:29.503Z,66.10
2019-05-11T23:42:58.085Z,66.30
2019-05-11T23:45:28.040Z,66.30
2019-05-11T23:47:58.631Z,66.20
2019-05-11T23:50:28.196Z,66.30
2019-05-11T23:53:05.988Z,66.40
2019-05-11T23:55:28.985Z,66.50
2019-05-11T23:57:57.972Z,66.60
